ハルビン の空港の天気 - METARとTAF

ハルビン太平国際空港 ( ZYHB / HRB ) - 中華人民共和国 黒竜江省ハルビン市
飛行場実況気象(Metar)
観測時間05/25 18:00 CST (05/25 10:00 UTC)
風向・風速北東 4m/s
視程10km以上
天気現象
なし
気温19℃
湿度32%
気圧1011hPa
METARZYHB 251000Z 05004MPS CAVOK 19/02 Q1011 NOSIG
過去の天気等 Google飛行場航空写真 Wunderground天気予報

過去48時間のMETAR

飛行場予報(TAF)
発表時間: 5/25 11:10 CST (5/25 03:10 UTC)
予報対象時間: 25日14時 CST ~ 26日14時 CST
風向・風速北 6m/s 瞬間風速 13m/s
視程6,000m
全天の4割程度の雲 雲底高度 1,010m
25日17時 CST ~ 25日19時 CST に徐々に
風向・風速東 4m/s
TAF ZYHB 250310Z 2506/2606 36006G13MPS 6000 SCT033 TX19/2506Z TN07/2521Z
BECMG 2509/2511 09004MPS